Time;durP1;ratioP1;P1;durP2;ratioP2;P2;SDS_P1;SDS_P2;PMS_P1;PMS_P2;Temp;Humidity;BMP_temperature;BMP_pressure;BME280_temperature;BME280_humidity;BME280_pressure;Samples;Min_cycle;Max_cycle;Signal;HPM_P1;HPM_P2
2022/10/01 00:00:59;;;;;;;8.23;6.65;;;11.80;99.90;;;;;;5089143;27;38924;-79
2022/10/01 00:03:30;;;;;;;10.85;5.85;;;11.80;99.90;;;;;;5081652;27;37251;-84
2022/10/01 00:06:05;;;;;;;12.45;6.65;;;11.80;99.90;;;;;;5059670;27;37054;-83
2022/10/01 00:08:40;;;;;;;9.45;5.90;;;11.80;99.90;;;;;;5069906;27;49076;-77
2022/10/01 00:11:13;;;;;;;8.60;6.03;;;11.80;99.90;;;;;;5073616;27;39975;-84
2022/10/01 00:13:40;;;;;;;6.68;5.75;;;11.80;99.90;;;;;;5075677;28;37680;-78
2022/10/01 00:16:09;;;;;;;8.88;6.45;;;11.70;99.90;;;;;;5075426;27;37196;-84
2022/10/01 00:18:38;;;;;;;9.98;6.63;;;11.70;99.90;;;;;;5092867;27;35990;-83
2022/10/01 00:21:09;;;;;;;8.82;6.20;;;11.70;99.90;;;;;;5081614;27;40928;-77
2022/10/01 00:23:36;;;;;;;8.68;5.90;;;11.70;99.90;;;;;;5071664;27;38222;-76
2022/10/01 00:26:20;;;;;;;9.43;6.50;;;11.70;99.90;;;;;;5081089;27;36908;-76
2022/10/01 00:28:51;;;;;;;7.28;5.50;;;11.70;99.90;;;;;;5067404;27;48568;-78
2022/10/01 00:31:17;;;;;;;7.47;5.50;;;11.70;99.90;;;;;;5073080;27;36557;-81
2022/10/01 00:33:47;;;;;;;8.90;6.10;;;11.70;99.90;;;;;;5075018;28;39323;-81
2022/10/01 00:36:14;;;;;;;14.68;5.35;;;11.70;99.90;;;;;;5076664;27;36396;-76
2022/10/01 00:38:41;;;;;;;7.22;5.10;;;11.70;99.90;;;;;;5081461;27;37982;-79
2022/10/01 00:41:08;;;;;;;5.63;4.78;;;11.80;99.90;;;;;;5084212;27;39154;-79
2022/10/01 00:43:44;;;;;;;7.13;5.80;;;11.80;99.90;;;;;;5078125;27;37680;-77
2022/10/01 00:46:33;;;;;;;6.18;5.30;;;11.80;99.90;;;;;;5078711;27;37586;-78
2022/10/01 00:49:07;;;;;;;6.10;5.50;;;11.80;99.90;;;;;;5077889;28;35985;-78
2022/10/01 00:51:38;;;;;;;7.68;5.85;;;11.80;99.90;;;;;;5073371;27;48004;-82
2022/10/01 00:54:22;;;;;;;6.43;5.82;;;11.90;99.90;;;;;;5067087;27;37986;-80
2022/10/01 00:56:54;;;;;;;7.68;5.43;;;11.80;99.90;;;;;;5074301;28;36996;-80
2022/10/01 00:59:21;;;;;;;7.18;5.22;;;11.90;99.90;;;;;;5067001;27;37855;-81
2022/10/01 01:04:17;;;;;;;5.07;4.13;;;12.00;99.90;;;;;;5056370;28;20053;-77
2022/10/01 01:06:52;;;;;;;5.78;4.38;;;12.00;99.90;;;;;;5062647;28;37880;-78
2022/10/01 01:09:19;;;;;;;5.70;4.90;;;12.00;99.90;;;;;;5063838;28;36872;-78
2022/10/01 01:12:23;;;;;;;7.20;5.70;;;11.90;99.90;;;;;;5074510;28;38725;-82
2022/10/01 01:15:13;;;;;;;6.03;5.10;;;11.90;99.90;;;;;;5098497;28;47947;-79
2022/10/01 01:18:04;;;;;;;8.52;5.30;;;11.90;99.90;;;;;;5077248;28;48390;-81
2022/10/01 01:21:02;;;;;;;6.57;5.20;;;11.90;99.90;;;;;;5069553;28;47372;-79
2022/10/01 01:23:35;;;;;;;9.05;4.90;;;11.90;99.90;;;;;;5079440;28;37232;-80
2022/10/01 01:26:24;;;;;;;8.27;4.88;;;12.00;99.90;;;;;;5071727;28;38425;-77
2022/10/01 01:28:57;;;;;;;6.03;4.25;;;12.00;99.90;;;;;;5065511;28;46951;-77
2022/10/01 01:31:36;;;;;;;7.30;3.85;;;12.00;99.90;;;;;;5069638;28;37487;-80
2022/10/01 01:34:11;;;;;;;6.82;4.32;;;12.10;99.90;;;;;;5067986;28;37568;-79
2022/10/01 01:36:43;;;;;;;7.40;4.43;;;12.10;99.90;;;;;;5069757;28;47527;-80
2022/10/01 01:39:12;;;;;;;8.18;4.30;;;12.10;99.90;;;;;;5071028;28;37573;-81
2022/10/01 01:41:47;;;;;;;8.90;5.38;;;12.10;99.90;;;;;;5070972;28;38356;-80
2022/10/01 01:44:15;;;;;;;6.03;3.88;;;12.10;99.90;;;;;;5072415;28;38152;-80
2022/10/01 01:46:45;;;;;;;5.65;4.32;;;12.10;99.90;;;;;;5072080;28;38356;-79
2022/10/01 01:49:13;;;;;;;7.07;4.70;;;12.10;99.90;;;;;;5070368;28;36838;-79
2022/10/01 01:51:49;;;;;;;7.13;4.97;;;12.20;99.90;;;;;;5074841;28;36105;-78
2022/10/01 01:54:17;;;;;;;5.80;4.15;;;12.10;99.90;;;;;;5072101;28;37789;-78
2022/10/01 01:56:43;;;;;;;5.55;4.38;;;12.10;99.90;;;;;;5073990;28;37836;-79
2022/10/01 01:59:10;;;;;;;7.13;4.75;;;12.10;99.90;;;;;;5070792;28;36478;-78
2022/10/01 02:01:42;;;;;;;5.10;4.70;;;12.20;99.90;;;;;;5069774;28;37466;-79
2022/10/01 02:04:31;;;;;;;5.78;4.70;;;12.20;99.90;;;;;;5065912;28;37703;-79
2022/10/01 02:07:27;;;;;;;9.43;5.47;;;12.20;99.90;;;;;;5070115;28;38132;-78
2022/10/01 02:10:09;;;;;;;7.68;5.25;;;12.20;99.90;;;;;;5064843;28;47354;-79
2022/10/01 02:12:53;;;;;;;11.67;6.00;;;12.20;99.90;;;;;;5066982;28;47755;-78
2022/10/01 02:15:30;;;;;;;7.05;6.45;;;12.20;99.90;;;;;;5065329;28;38869;-79
2022/10/01 02:18:22;;;;;;;12.23;5.65;;;12.20;99.90;;;;;;5084129;28;39431;-78
2022/10/01 02:20:59;;;;;;;8.30;6.63;;;12.30;99.90;;;;;;5071361;28;48612;-79
2022/10/01 02:23:30;;;;;;;7.10;6.50;;;12.30;99.90;;;;;;5082804;28;36474;-80
2022/10/01 02:26:01;;;;;;;7.70;6.97;;;12.30;99.90;;;;;;5066586;28;38524;-79
2022/10/01 02:28:30;;;;;;;7.05;6.07;;;12.30;99.90;;;;;;5067303;28;37589;-79
2022/10/01 02:30:58;;;;;;;7.53;6.82;;;12.30;99.90;;;;;;5067914;28;36695;-79
2022/10/01 02:33:28;;;;;;;7.57;6.57;;;12.40;99.90;;;;;;5066919;28;36146;-79
2022/10/01 02:35:57;;;;;;;8.25;6.65;;;12.50;99.90;;;;;;5063719;28;37928;-81
2022/10/01 02:38:24;;;;;;;9.93;8.15;;;12.40;99.90;;;;;;5068231;28;38253;-80
2022/10/01 02:40:54;;;;;;;8.25;7.35;;;12.50;99.90;;;;;;5068721;28;38275;-80
2022/10/01 02:43:26;;;;;;;9.15;6.82;;;12.50;99.90;;;;;;5071038;28;38429;-77
2022/10/01 02:45:59;;;;;;;7.80;7.10;;;12.60;99.90;;;;;;5065684;28;37946;-78
2022/10/01 02:48:26;;;;;;;13.98;8.57;;;12.60;99.90;;;;;;5073253;28;38344;-81
2022/10/01 02:51:00;;;;;;;8.57;7.78;;;12.70;99.90;;;;;;5088703;28;38414;-80
2022/10/01 02:53:43;;;;;;;7.10;6.50;;;12.70;99.90;;;;;;5062833;28;36340;-80
2022/10/01 02:56:11;;;;;;;9.52;6.90;;;12.70;99.90;;;;;;5075851;28;39715;-80
2022/10/01 02:58:39;;;;;;;8.80;5.95;;;12.70;99.90;;;;;;5073030;28;38664;-80
2022/10/01 03:01:45;;;;;;;5.88;5.38;;;12.80;99.90;;;;;;5076756;28;38798;-80
2022/10/01 03:04:12;;;;;;;5.30;4.80;;;12.80;99.90;;;;;;5068752;28;50423;-80
2022/10/01 03:06:38;;;;;;;5.90;5.30;;;12.90;99.90;;;;;;5073847;28;38982;-79
2022/10/01 03:09:07;;;;;;;6.28;4.32;;;12.90;99.90;;;;;;5067362;28;37324;-80
2022/10/01 03:11:34;;;;;;;4.60;3.50;;;13.00;99.90;;;;;;5082098;28;38261;-81
2022/10/01 03:14:00;;;;;;;6.13;3.42;;;13.10;99.90;;;;;;5082278;28;35766;-78
2022/10/01 03:16:26;;;;;;;4.25;3.22;;;13.10;99.90;;;;;;5069299;28;37921;-77
2022/10/01 03:18:52;;;;;;;4.45;3.13;;;13.10;99.90;;;;;;5070473;28;37291;-79
2022/10/01 03:21:21;;;;;;;4.70;3.40;;;13.20;99.90;;;;;;5072329;28;38079;-78
2022/10/01 03:23:47;;;;;;;4.20;3.00;;;13.20;99.90;;;;;;5090838;28;36398;-78
2022/10/01 03:26:13;;;;;;;3.40;3.10;;;13.20;99.90;;;;;;5078090;28;38713;-79
2022/10/01 03:28:39;;;;;;;3.65;3.17;;;13.30;99.90;;;;;;5078072;28;38321;-78
2022/10/01 03:31:08;;;;;;;4.00;2.60;;;13.30;99.90;;;;;;5069031;28;37769;-78
2022/10/01 03:33:34;;;;;;;2.83;2.53;;;13.30;99.90;;;;;;5074467;28;37294;-78
2022/10/01 03:36:02;;;;;;;2.30;2.10;;;13.30;99.90;;;;;;5071155;28;39048;-79
2022/10/01 03:38:29;;;;;;;5.18;2.63;;;13.40;99.90;;;;;;5075507;28;38193;-78
2022/10/01 03:40:55;;;;;;;3.13;2.83;;;13.40;99.90;;;;;;5079865;28;37204;-78
2022/10/01 03:43:21;;;;;;;4.22;3.13;;;13.40;99.90;;;;;;5073789;28;36686;-78
2022/10/01 03:45:48;;;;;;;9.07;2.72;;;13.40;99.90;;;;;;5081249;28;39086;-79
2022/10/01 03:48:14;;;;;;;4.38;2.70;;;13.40;99.90;;;;;;5081979;28;36903;-79
2022/10/01 03:50:40;;;;;;;4.00;2.97;;;13.40;99.90;;;;;;5082582;28;39098;-79
2022/10/01 03:53:06;;;;;;;4.35;3.10;;;13.40;99.90;;;;;;5078126;28;36723;-79
2022/10/01 03:55:33;;;;;;;3.65;2.80;;;13.40;99.90;;;;;;5099661;28;37512;-79
2022/10/01 03:57:59;;;;;;;5.13;2.58;;;13.50;99.90;;;;;;5077759;28;39329;-78
2022/10/01 04:00:25;;;;;;;7.40;2.72;;;13.50;99.90;;;;;;5097600;28;36586;-79
2022/10/01 04:02:51;;;;;;;3.83;2.55;;;13.50;99.90;;;;;;5086172;28;37416;-79
2022/10/01 04:05:17;;;;;;;3.60;2.65;;;13.60;99.90;;;;;;5086687;28;37555;-78
2022/10/01 04:07:43;;;;;;;5.70;3.03;;;13.60;99.90;;;;;;5082883;28;37530;-79
2022/10/01 04:10:10;;;;;;;3.30;2.47;;;13.60;99.90;;;;;;5077265;28;37066;-79
2022/10/01 04:12:37;;;;;;;3.80;3.05;;;13.60;99.90;;;;;;5082702;28;36136;-79
2022/10/01 04:15:03;;;;;;;6.05;2.80;;;13.70;99.90;;;;;;5082198;28;37439;-79
2022/10/01 04:17:29;;;;;;;5.75;2.97;;;13.70;99.90;;;;;;5080681;28;40581;-79
2022/10/01 04:19:56;;;;;;;4.28;3.03;;;13.70;99.90;;;;;;5071698;28;37576;-79
2022/10/01 04:22:22;;;;;;;4.65;3.35;;;13.70;99.90;;;;;;5078350;28;37569;-78
2022/10/01 04:24:48;;;;;;;3.30;2.85;;;13.70;99.90;;;;;;5073731;28;38750;-79
2022/10/01 04:27:14;;;;;;;6.22;3.70;;;13.70;99.90;;;;;;5082180;28;37000;-79
2022/10/01 04:29:40;;;;;;;4.75;2.88;;;13.80;99.90;;;;;;5082041;28;38155;-79
2022/10/01 04:32:07;;;;;;;8.25;3.40;;;13.70;99.90;;;;;;5087544;28;37782;-78
2022/10/01 04:34:51;;;;;;;4.32;3.88;;;13.70;99.90;;;;;;5085868;28;37456;-79
2022/10/01 04:37:20;;;;;;;8.48;4.07;;;13.70;99.90;;;;;;5083967;28;38641;-79
2022/10/01 04:39:48;;;;;;;6.95;3.90;;;13.80;99.90;;;;;;5079995;28;38228;-79
2022/10/01 04:42:15;;;;;;;5.28;3.70;;;13.80;99.90;;;;;;5083851;28;37358;-79
2022/10/01 04:44:43;;;;;;;8.32;3.90;;;13.70;99.90;;;;;;5085690;28;38764;-80
2022/10/01 04:47:11;;;;;;;8.38;4.05;;;13.70;99.90;;;;;;5088848;28;37080;-79
2022/10/01 04:49:37;;;;;;;9.40;4.18;;;13.70;99.90;;;;;;5085688;28;37071;-78
2022/10/01 04:52:04;;;;;;;7.00;4.40;;;13.80;99.90;;;;;;5090469;28;37128;-79
2022/10/01 04:54:31;;;;;;;8.63;3.30;;;13.70;99.90;;;;;;5086712;28;37926;-78
2022/10/01 04:56:57;;;;;;;12.90;4.00;;;13.70;99.90;;;;;;5085162;28;38506;-79
2022/10/01 04:59:24;;;;;;;6.93;3.10;;;13.70;99.90;;;;;;5090321;28;37781;-79
2022/10/01 05:01:51;;;;;;;7.38;3.58;;;13.70;99.90;;;;;;5090110;28;36264;-79
2022/10/01 05:04:17;;;;;;;7.85;4.50;;;13.80;99.90;;;;;;5085856;28;38525;-79
2022/10/01 05:06:43;;;;;;;12.15;3.75;;;13.80;99.90;;;;;;5089088;28;36987;-79
2022/10/01 05:09:12;;;;;;;11.45;3.83;;;13.80;99.90;;;;;;5087536;28;38494;-79
2022/10/01 05:11:50;;;;;;;11.02;3.15;;;13.80;99.90;;;;;;5090259;28;36284;-79
2022/10/01 05:14:20;;;;;;;7.22;3.85;;;13.90;99.90;;;;;;5088111;28;39626;-78
2022/10/01 05:16:50;;;;;;;12.70;3.92;;;13.90;99.90;;;;;;5085318;28;38528;-79
2022/10/01 05:19:20;;;;;;;9.43;4.40;;;13.90;99.90;;;;;;5088199;28;36350;-78
2022/10/01 05:21:46;;;;;;;12.77;4.60;;;13.90;99.90;;;;;;5080520;28;38617;-78
2022/10/01 05:24:12;;;;;;;9.88;4.72;;;13.90;99.90;;;;;;5064516;28;39892;-78
2022/10/01 05:26:38;;;;;;;7.10;3.45;;;13.80;99.90;;;;;;5065984;28;39403;-79
2022/10/01 05:29:04;;;;;;;8.60;4.10;;;13.80;99.90;;;;;;5082148;28;38088;-79
2022/10/01 05:31:32;;;;;;;10.32;4.28;;;13.70;99.90;;;;;;5084008;28;35782;-79
2022/10/01 05:33:58;;;;;;;18.73;5.95;;;13.90;99.90;;;;;;5086779;28;39098;-78
2022/10/01 05:36:24;;;;;;;10.05;5.10;;;13.80;99.90;;;;;;5080551;28;38470;-80
2022/10/01 05:38:51;;;;;;;6.45;4.13;;;13.80;99.90;;;;;;5063408;28;38003;-79
2022/10/01 05:41:18;;;;;;;12.68;4.80;;;13.80;99.90;;;;;;5071712;28;37702;-79
2022/10/01 05:43:47;;;;;;;6.07;3.13;;;13.70;99.90;;;;;;5074295;28;38280;-79
2022/10/01 05:46:14;;;;;;;10.57;3.88;;;13.70;99.90;;;;;;5075628;28;39145;-79
2022/10/01 05:48:40;;;;;;;10.60;5.22;;;13.70;99.90;;;;;;5072458;28;36455;-79
2022/10/01 05:51:07;;;;;;;8.90;3.80;;;13.70;99.90;;;;;;5075737;28;37832;-79
2022/10/01 05:53:36;;;;;;;8.85;3.80;;;13.70;99.90;;;;;;5076945;28;37691;-79
2022/10/01 05:56:04;;;;;;;12.07;4.22;;;13.70;99.90;;;;;;5076333;28;37986;-79
2022/10/01 05:58:30;;;;;;;10.02;4.40;;;13.70;99.90;;;;;;5075008;28;47250;-79
2022/10/01 06:01:00;;;;;;;14.55;3.50;;;13.70;99.90;;;;;;5085311;28;37807;-80
2022/10/01 06:03:27;;;;;;;10.43;4.13;;;13.80;99.90;;;;;;5081777;28;38667;-79
2022/10/01 06:05:54;;;;;;;9.98;4.15;;;13.80;99.90;;;;;;5080842;28;39167;-80
2022/10/01 06:08:21;;;;;;;11.05;3.40;;;13.90;99.90;;;;;;5070123;28;37223;-79
2022/10/01 06:10:48;;;;;;;11.48;3.42;;;13.90;99.90;;;;;;5075540;28;35698;-79
2022/10/01 06:13:16;;;;;;;9.20;3.30;;;13.90;99.90;;;;;;5092309;27;37690;-79
2022/10/01 06:15:44;;;;;;;10.73;3.90;;;13.90;99.90;;;;;;5080179;28;37764;-80
2022/10/01 06:18:12;;;;;;;11.23;4.43;;;13.90;99.90;;;;;;5077684;28;37618;-79
2022/10/01 06:20:39;;;;;;;10.27;3.78;;;14.00;99.90;;;;;;5069338;28;37574;-79
2022/10/01 06:23:10;;;;;;;15.45;4.45;;;13.90;99.90;;;;;;5062748;28;37747;-79
2022/10/01 06:25:42;;;;;;;8.73;3.00;;;13.90;99.90;;;;;;5068203;28;38452;-79
2022/10/01 06:28:12;;;;;;;6.82;2.47;;;13.90;99.90;;;;;;5073022;28;37743;-79
2022/10/01 06:30:41;;;;;;;15.07;4.25;;;13.90;99.90;;;;;;5065995;28;37904;-78
2022/10/01 06:33:10;;;;;;;12.32;3.70;;;13.80;99.90;;;;;;5078954;28;38905;-79
2022/10/01 06:35:43;;;;;;;9.27;2.88;;;13.80;99.90;;;;;;5080086;28;38733;-79
2022/10/01 06:38:10;;;;;;;12.55;3.40;;;13.80;99.90;;;;;;5071719;28;38383;-78
2022/10/01 06:40:36;;;;;;;12.63;3.58;;;13.70;99.90;;;;;;5076802;28;35699;-77
2022/10/01 06:43:02;;;;;;;12.10;3.80;;;13.80;99.90;;;;;;5074877;28;38858;-78
2022/10/01 06:45:30;;;;;;;9.57;4.38;;;13.80;99.90;;;;;;5083904;28;48340;-78
2022/10/01 06:48:01;;;;;;;9.10;4.07;;;14.00;99.90;;;;;;5082866;28;38304;-79
2022/10/01 06:50:28;;;;;;;8.88;2.90;;;14.10;99.90;;;;;;5081150;28;37590;-79
2022/10/01 06:52:55;;;;;;;8.15;3.45;;;14.10;99.90;;;;;;5085056;28;36494;-80
2022/10/01 06:55:30;;;;;;;5.45;2.85;;;14.10;99.90;;;;;;5091442;28;37120;-81
2022/10/01 06:57:58;;;;;;;14.52;2.95;;;14.00;99.90;;;;;;5084314;28;37366;-80
2022/10/01 07:00:25;;;;;;;10.70;2.17;;;14.00;99.90;;;;;;5069506;28;37337;-80
2022/10/01 07:02:53;;;;;;;9.43;2.63;;;14.00;99.90;;;;;;5060606;28;38433;-80
2022/10/01 07:05:19;;;;;;;6.93;3.00;;;14.00;99.90;;;;;;5060545;28;37470;-80
2022/10/01 07:07:47;;;;;;;14.68;3.35;;;14.00;99.90;;;;;;5077292;28;37354;-79
2022/10/01 07:10:14;;;;;;;12.00;2.60;;;14.10;99.90;;;;;;5073393;28;37412;-79
2022/10/01 07:12:40;;;;;;;10.05;2.67;;;14.10;99.90;;;;;;5071154;28;38423;-79
2022/10/01 07:15:07;;;;;;;8.85;2.20;;;14.20;99.90;;;;;;5073457;28;37320;-80
2022/10/01 07:17:41;;;;;;;10.07;2.63;;;14.30;99.90;;;;;;5086671;27;36230;-82
2022/10/01 07:20:07;;;;;;;12.15;2.95;;;14.30;99.90;;;;;;5066537;28;36518;-79
2022/10/01 07:22:34;;;;;;;17.42;3.58;;;14.50;99.90;;;;;;5081717;27;39108;-82
2022/10/01 07:25:00;;;;;;;13.57;2.90;;;14.60;99.90;;;;;;5067950;28;37100;-81
2022/10/01 07:27:26;;;;;;;17.20;2.97;;;14.70;99.90;;;;;;5063447;28;38437;-81
2022/10/01 07:29:52;;;;;;;22.80;3.33;;;14.80;99.90;;;;;;5053169;28;36496;-81
2022/10/01 07:32:19;;;;;;;17.48;3.25;;;14.90;99.90;;;;;;5063516;28;38660;-80
2022/10/01 07:34:45;;;;;;;21.77;3.35;;;15.00;99.90;;;;;;5068775;28;36964;-81
2022/10/01 07:37:11;;;;;;;23.75;3.58;;;15.10;99.90;;;;;;5064515;28;37513;-81
2022/10/01 07:39:37;;;;;;;20.98;4.35;;;15.20;99.90;;;;;;5066531;28;36355;-84
2022/10/01 07:42:03;;;;;;;19.73;3.50;;;15.40;99.90;;;;;;5067761;28;38838;-83
2022/10/01 07:44:29;;;;;;;18.63;2.70;;;15.40;99.90;;;;;;5084635;28;36710;-84
2022/10/01 07:46:56;;;;;;;20.98;3.60;;;15.40;99.90;;;;;;5074361;28;36886;-83
2022/10/01 07:49:34;;;;;;;17.40;2.42;;;15.30;99.90;;;;;;5077648;28;36492;-85
2022/10/01 07:52:01;;;;;;;12.55;2.80;;;15.30;99.90;;;;;;5081822;28;40075;-83
2022/10/01 07:54:27;;;;;;;14.23;2.63;;;15.40;99.90;;;;;;5083308;28;36936;-82
2022/10/01 07:56:54;;;;;;;18.67;2.25;;;15.40;99.90;;;;;;5075154;28;36576;-80
2022/10/01 07:59:42;;;;;;;17.58;2.60;;;15.50;99.90;;;;;;5081533;28;36216;-83
2022/10/01 08:02:13;;;;;;;19.38;3.20;;;15.50;99.90;;;;;;5080871;28;37624;-81
2022/10/01 08:07:25;;;;;;;14.32;2.40;;;15.60;99.90;;;;;;5081080;28;39457;-81
2022/10/01 08:09:52;;;;;;;14.43;2.58;;;15.80;99.90;;;;;;5059227;28;36031;-83
2022/10/01 08:12:21;;;;;;;15.35;2.75;;;15.90;99.90;;;;;;5073910;28;37929;-84
2022/10/01 08:14:47;;;;;;;12.88;2.47;;;15.90;99.90;;;;;;5067915;28;38489;-85
2022/10/01 08:17:13;;;;;;;12.57;1.80;;;15.90;99.90;;;;;;5064555;28;36488;-84
2022/10/01 08:19:39;;;;;;;11.82;2.28;;;16.00;99.90;;;;;;5068087;28;36528;-83
2022/10/01 08:22:06;;;;;;;12.68;1.85;;;16.00;99.90;;;;;;5064521;28;37772;-81
2022/10/01 08:24:35;;;;;;;17.08;2.45;;;16.10;99.90;;;;;;5063852;28;37434;-81
2022/10/01 08:27:01;;;;;;;14.70;2.85;;;16.30;99.90;;;;;;5064955;28;37690;-80
2022/10/01 08:29:27;;;;;;;12.27;2.72;;;16.30;99.90;;;;;;5063501;28;36976;-79
2022/10/01 08:31:55;;;;;;;12.50;1.98;;;16.30;99.90;;;;;;5063467;28;38075;-84
2022/10/01 08:34:21;;;;;;;15.32;2.17;;;16.40;99.90;;;;;;5058447;28;39822;-86
2022/10/01 08:36:50;;;;;;;12.05;2.58;;;16.40;99.90;;;;;;5068621;28;38756;-84
2022/10/01 08:39:17;;;;;;;10.73;1.75;;;16.30;99.90;;;;;;5067896;28;36589;-83
2022/10/01 08:42:10;;;;;;;16.42;2.95;;;16.30;99.90;;;;;;5063095;28;38803;-85
2022/10/01 08:44:43;;;;;;;15.57;2.22;;;16.20;99.90;;;;;;5066708;28;48684;-86
2022/10/01 08:47:20;;;;;;;17.95;2.38;;;16.40;99.90;;;;;;5064671;28;36534;-88
2022/10/01 08:49:58;;;;;;;12.48;2.25;;;16.60;99.90;;;;;;5080017;28;36135;-87
2022/10/01 08:52:29;;;;;;;19.30;2.55;;;16.80;99.90;;;;;;5063749;28;38866;-86
2022/10/01 08:55:12;;;;;;;15.48;3.25;;;16.80;99.90;;;;;;5068492;28;37480;-86
2022/10/01 08:57:45;;;;;;;13.32;2.30;;;16.80;99.90;;;;;;5072935;28;47121;-88
2022/10/01 09:00:17;;;;;;;17.70;2.92;;;16.80;99.90;;;;;;5070340;28;37967;-84
2022/10/01 09:02:45;;;;;;;13.50;2.77;;;16.90;99.90;;;;;;5063259;28;37693;-87
2022/10/01 09:05:46;;;;;;;14.02;2.85;;;17.00;99.90;;;;;;5064041;28;38497;-86
2022/10/01 09:08:42;;;;;;;17.65;2.80;;;17.10;99.90;;;;;;5061810;28;38774;-87
2022/10/01 09:11:23;;;;;;;11.20;2.25;;;17.10;99.90;;;;;;5064016;28;37782;-86
2022/10/01 09:14:10;;;;;;;16.85;2.85;;;17.20;99.90;;;;;;5063750;28;38648;-87
2022/10/01 09:16:55;;;;;;;16.17;2.75;;;17.10;99.90;;;;;;5060804;28;47008;-86
2022/10/01 09:19:53;;;;;;;15.57;2.30;;;17.10;99.90;;;;;;5080721;28;36619;-85
2022/10/01 09:22:26;;;;;;;15.25;2.55;;;17.20;99.90;;;;;;5065292;28;36320;-85
2022/10/01 09:25:08;;;;;;;12.07;2.15;;;17.30;99.90;;;;;;5080856;28;39668;-86
2022/10/01 09:27:36;;;;;;;6.25;1.50;;;17.00;99.90;;;;;;5084408;28;46853;-85
2022/10/01 09:30:17;;;;;;;11.10;2.20;;;17.00;99.90;;;;;;5069536;28;37635;-85
2022/10/01 09:33:02;;;;;;;16.05;2.58;;;17.20;99.90;;;;;;5062523;28;47318;-88
2022/10/01 09:35:43;;;;;;;19.73;3.13;;;17.30;99.90;;;;;;5060411;28;40676;-87
2022/10/01 09:38:32;;;;;;;14.35;2.55;;;17.30;99.90;;;;;;5062389;28;37659;-88
2022/10/01 09:40:59;;;;;;;13.45;2.35;;;17.20;99.90;;;;;;5060151;28;38088;-88
2022/10/01 09:43:28;;;;;;;15.77;2.45;;;17.10;99.90;;;;;;5063172;28;37621;-90
2022/10/01 09:45:55;;;;;;;12.48;2.58;;;17.00;99.90;;;;;;5065167;28;37765;-88
2022/10/01 09:48:43;;;;;;;18.17;3.30;;;17.30;99.90;;;;;;5065905;28;38755;-90
2022/10/01 09:51:17;;;;;;;15.90;3.22;;;17.60;99.90;;;;;;5068218;28;37285;-92
2022/10/01 09:53:54;;;;;;;14.80;2.78;;;17.80;99.90;;;;;;5064631;28;38326;-91
2022/10/01 09:56:28;;;;;;;12.50;2.28;;;18.10;99.90;;;;;;5065067;28;39077;-89
2022/10/01 09:58:59;;;;;;;16.38;2.83;;;18.30;99.90;;;;;;5059480;28;37176;-91
2022/10/01 10:01:47;;;;;;;13.18;1.90;;;18.10;99.90;;;;;;5064077;28;37404;-90
2022/10/01 10:04:23;;;;;;;8.85;2.38;;;17.80;99.90;;;;;;5064660;28;37767;-90
2022/10/01 10:06:57;;;;;;;12.15;2.25;;;17.80;99.90;;;;;;5065689;28;39215;-88
2022/10/01 10:09:29;;;;;;;14.13;2.47;;;18.00;99.90;;;;;;5064033;28;37383;-88
2022/10/01 10:11:58;;;;;;;12.90;1.92;;;17.80;99.90;;;;;;5056908;28;37846;-90
2022/10/01 10:14:30;;;;;;;12.50;2.30;;;17.70;99.90;;;;;;5055279;28;36147;-90
2022/10/01 10:16:57;;;;;;;12.60;2.47;;;17.90;99.90;;;;;;5062049;28;38739;-88
2022/10/01 10:19:26;;;;;;;13.40;2.05;;;18.10;99.90;;;;;;5063639;28;37459;-89
2022/10/01 10:22:08;;;;;;;16.20;2.40;;;18.00;99.90;;;;;;5067899;28;36647;-90
2022/10/01 10:24:35;;;;;;;8.25;1.70;;;18.10;99.90;;;;;;5064888;28;47618;-90
2022/10/01 10:27:04;;;;;;;12.32;2.72;;;18.30;99.90;;;;;;5088558;28;39807;-90
2022/10/01 10:29:33;;;;;;;9.23;1.73;;;18.40;99.90;;;;;;5085329;28;47015;-92
2022/10/01 10:32:24;;;;;;;10.68;1.92;;;18.50;99.90;;;;;;5067983;28;38158;-90
2022/10/01 10:34:54;;;;;;;12.80;2.17;;;18.40;99.90;;;;;;5065624;28;48883;-91
2022/10/01 10:37:27;;;;;;;13.88;2.50;;;18.30;99.90;;;;;;5068852;28;39249;-90
2022/10/01 10:39:53;;;;;;;16.92;2.88;;;18.00;99.90;;;;;;5071055;28;38841;-90
2022/10/01 10:42:21;;;;;;;12.55;2.22;;;17.90;99.90;;;;;;5070623;28;37182;-87
2022/10/01 10:44:50;;;;;;;17.58;3.22;;;17.90;99.90;;;;;;5069649;28;36086;-91
2022/10/01 10:47:18;;;;;;;16.75;2.25;;;17.90;99.90;;;;;;5062823;27;37789;-88
2022/10/01 10:49:48;;;;;;;14.90;3.03;;;18.00;99.90;;;;;;5065867;28;37651;-90
2022/10/01 10:52:23;;;;;;;12.05;2.60;;;17.90;99.90;;;;;;5069455;28;38410;-90
2022/10/01 10:54:52;;;;;;;11.55;2.42;;;17.90;99.90;;;;;;5071256;28;39597;-92
2022/10/01 10:57:27;;;;;;;14.85;2.80;;;17.70;99.90;;;;;;5063394;28;38159;-92
2022/10/01 11:00:35;;;;;;;13.25;2.45;;;17.70;99.90;;;;;;5066009;28;37841;-92
2022/10/01 11:03:05;;;;;;;13.48;2.55;;;17.70;99.90;;;;;;5067885;28;47070;-91
2022/10/01 11:05:38;;;;;;;14.55;2.10;;;17.60;99.90;;;;;;5067764;28;46874;-93
2022/10/01 11:08:10;;;;;;;12.88;2.70;;;17.70;99.90;;;;;;5064393;28;39371;-91
2022/10/01 11:10:47;;;;;;;14.48;2.65;;;17.70;99.90;;;;;;5062521;28;36996;-92
2022/10/01 11:13:33;;;;;;;15.80;2.30;;;17.60;99.90;;;;;;5065142;28;37941;-92
2022/10/01 11:16:32;;;;;;;15.55;3.05;;;17.50;99.90;;;;;;5062217;28;36095;-91
2022/10/01 11:19:29;;;;;;;11.43;2.30;;;17.50;99.90;;;;;;5061029;28;47217;-91
2022/10/01 11:22:14;;;;;;;14.10;2.67;;;17.60;99.90;;;;;;5065366;28;47238;-90
2022/10/01 11:24:59;;;;;;;12.77;2.00;;;17.50;99.90;;;;;;5078068;28;47000;-93
2022/10/01 11:27:57;;;;;;;9.43;1.95;;;17.50;99.90;;;;;;5079677;28;37669;-92
2022/10/01 11:30:38;;;;;;;13.70;2.95;;;17.50;99.90;;;;;;5075925;28;39428;-91
2022/10/01 11:33:14;;;;;;;14.40;2.70;;;17.60;99.90;;;;;;5071243;28;38630;-95
2022/10/01 11:36:00;;;;;;;12.43;2.38;;;17.80;99.90;;;;;;5063150;28;38040;-92
2022/10/01 11:38:47;;;;;;;17.42;3.00;;;18.00;99.90;;;;;;5067618;28;36337;-91
2022/10/01 11:41:28;;;;;;;16.17;2.40;;;18.10;99.90;;;;;;5068253;28;37973;-91
2022/10/01 11:44:22;;;;;;;13.85;2.63;;;18.50;99.90;;;;;;5067330;28;37610;-89
2022/10/01 11:47:15;;;;;;;16.13;2.30;;;18.70;99.90;;;;;;5084014;28;47476;-91
2022/10/01 11:49:50;;;;;;;14.73;2.83;;;18.80;99.90;;;;;;5084302;28;47591;-92
2022/10/01 11:52:19;;;;;;;11.48;2.08;;;18.70;99.90;;;;;;5065282;28;37917;-91
2022/10/01 11:54:51;;;;;;;12.73;2.03;;;18.80;99.90;;;;;;5067469;28;37104;-87
2022/10/01 12:00:09;;;;;;;10.05;2.42;;;18.50;99.90;;;;;;5063151;28;37673;-91
2022/10/01 12:02:44;;;;;;;;;;;18.40;99.90;;;;;;5065342;28;47065;-91
2022/10/01 12:05:15;;;;;;;13.15;2.58;;;18.30;99.90;;;;;;5083412;28;37213;-91
2022/10/01 12:08:17;;;;;;;12.00;2.17;;;18.30;99.90;;;;;;5077360;28;35115;-91
2022/10/01 12:10:50;;;;;;;10.97;2.10;;;18.40;99.90;;;;;;5047593;28;48673;-90
2022/10/01 12:13:46;;;;;;;10.93;2.45;;;18.50;99.90;;;;;;5062760;28;38744;-91
2022/10/01 12:16:14;;;;;;;12.07;2.17;;;18.70;99.90;;;;;;5059772;28;38801;-91
2022/10/01 12:19:09;;;;;;;12.02;2.10;;;19.10;99.90;;;;;;5064960;28;37512;-89
2022/10/01 12:21:44;;;;;;;10.90;2.17;;;19.30;99.90;;;;;;5063531;28;48634;-86
2022/10/01 12:24:14;;;;;;;12.93;2.17;;;19.50;99.90;;;;;;5077390;28;37576;-87
2022/10/01 12:26:40;;;;;;;8.63;1.83;;;19.20;99.90;;;;;;5065760;28;37420;-89
2022/10/01 12:29:31;;;;;;;14.93;2.28;;;18.90;99.90;;;;;;5080229;28;38060;-87
2022/10/01 12:31:57;;;;;;;11.00;2.28;;;18.60;99.90;;;;;;5061454;28;37235;-90
2022/10/01 12:34:38;;;;;;;12.63;2.15;;;18.30;99.90;;;;;;5062184;28;37712;-86
2022/10/01 12:37:11;;;;;;;13.07;2.42;;;18.00;99.90;;;;;;5076908;28;38858;-89
2022/10/01 12:40:15;;;;;;;14.75;2.58;;;18.00;99.90;;;;;;5075813;28;35790;-88
2022/10/01 12:42:50;;;;;;;12.88;2.15;;;18.00;99.90;;;;;;5064807;28;48500;-89
2022/10/01 12:45:47;;;;;;;11.68;2.30;;;17.90;99.90;;;;;;5075050;28;37504;-88
2022/10/01 12:48:32;;;;;;;10.65;2.00;;;18.00;99.90;;;;;;5058804;28;38633;-89
2022/10/01 12:51:29;;;;;;;15.10;2.53;;;18.40;99.90;;;;;;5079276;27;37042;-90
2022/10/01 12:54:32;;;;;;;9.80;2.58;;;19.10;99.90;;;;;;5064940;28;47641;-85
2022/10/01 12:57:37;;;;;;;12.35;2.65;;;19.60;99.90;;;;;;5062354;28;47298;-88
2022/10/01 13:00:17;;;;;;;11.57;2.40;;;19.60;99.90;;;;;;5055037;28;47237;-88
2022/10/01 13:02:50;;;;;;;11.85;2.28;;;19.60;99.90;;;;;;5055040;28;48049;-87
2022/10/01 13:05:37;;;;;;;13.55;2.20;;;19.50;99.90;;;;;;5074152;28;36516;-88
2022/10/01 13:08:09;;;;;;;5.72;1.42;;;19.40;99.90;;;;;;5060637;28;38549;-87
2022/10/01 13:10:56;;;;;;;11.88;2.42;;;19.30;99.90;;;;;;5060838;28;47101;-89
2022/10/01 13:13:31;;;;;;;7.43;2.13;;;19.20;99.90;;;;;;5064506;28;36702;-87
2022/10/01 13:16:23;;;;;;;14.60;2.63;;;19.40;99.90;;;;;;5067892;28;37024;-89
2022/10/01 13:18:54;;;;;;;10.68;2.25;;;19.40;99.90;;;;;;5067695;28;46678;-88